Steelville, Pennsylvania
Current Conditions -  °F | °C
As of 5:55 PM on Tuesday 27 Jan 2015 (Local Time) from KMQS Reporting Station
Clear Clear  
Wind Chill: 18°   Ceiling: Unl
Heat Index: 30°   Visibility: 10mi
Dew Point: 10°   Wind: 17mph
Humidity: 44%   Direction: 330°NNW
Pressure: 29.74"   Gusts: 23mph
Location:  39.9°N, 75.99°W
Report Text: KMQS 272255Z AUTO 33015G20KT 10SM CLR M01/M12 A2974 RMK AO2
Loading
Personal Weather Stations






























Interactive Weather Map New forecast layout! Learn more

10-Day Weather Forecast

Advertisements
Track Severe Weather on mobile